createdAt,value
2018-09-22T00:00:52.848Z,13.8
2018-09-22T00:02:14.445Z,13.8
2018-09-22T00:03:15.821Z,13.8
2018-09-22T00:04:38.379Z,13.8
2018-09-22T00:05:39.762Z,13.8
2018-09-22T00:07:01.351Z,13.7
2018-09-22T00:08:02.729Z,13.6
2018-09-22T00:09:25.291Z,13.7
2018-09-22T00:10:26.681Z,13.7
2018-09-22T00:11:49.253Z,13.7
2018-09-22T00:12:50.640Z,13.6
2018-09-22T00:14:13.191Z,13.7
2018-09-22T00:15:14.577Z,13.6
2018-09-22T00:16:37.157Z,13.7
2018-09-22T00:17:38.538Z,13.6
2018-09-22T00:19:00.115Z,13.6
2018-09-22T00:20:01.512Z,13.6
2018-09-22T00:21:25.089Z,13.6
2018-09-22T00:22:26.475Z,13.6
2018-09-22T00:23:27.857Z,13.5
2018-09-22T00:24:29.245Z,13.6
2018-09-22T00:25:30.632Z,13.5
2018-09-22T00:26:32.016Z,13.5
2018-09-22T00:27:33.409Z,13.6
2018-09-22T00:28:34.799Z,13.6
2018-09-22T00:29:36.182Z,13.6
2018-09-22T00:30:37.569Z,13.5
2018-09-22T00:31:38.957Z,13.5
2018-09-22T00:32:40.349Z,13.5
2018-09-22T00:33:41.740Z,13.5
2018-09-22T00:34:43.127Z,13.5
2018-09-22T00:35:44.518Z,13.5
2018-09-22T00:36:45.907Z,13.5
2018-09-22T00:37:47.291Z,13.5
2018-09-22T00:38:48.678Z,13.4
2018-09-22T00:39:50.069Z,13.5
2018-09-22T00:40:51.458Z,13.5
2018-09-22T00:41:52.847Z,13.4
2018-09-22T00:42:54.237Z,13.5
2018-09-22T00:43:55.672Z,13.5
2018-09-22T00:44:57.072Z,13.4
2018-09-22T00:45:58.464Z,13.4
2018-09-22T00:46:59.889Z,13.4
2018-09-22T00:48:01.239Z,13.5
2018-09-22T00:49:02.635Z,13.4
2018-09-22T00:50:04.026Z,13.4
2018-09-22T00:51:05.413Z,13.4
2018-09-22T00:52:06.803Z,13.4
2018-09-22T00:53:08.187Z,13.4
2018-09-22T00:54:09.577Z,13.4
2018-09-22T00:55:10.963Z,13.3
2018-09-22T00:56:12.353Z,13.3
2018-09-22T00:57:13.742Z,13.4
2018-09-22T00:58:15.127Z,13.3
2018-09-22T00:59:16.512Z,13.4
2018-09-22T01:00:17.902Z,13.3
2018-09-22T01:01:19.288Z,13.2
2018-09-22T01:02:20.679Z,13.3
2018-09-22T01:03:22.065Z,13.3
2018-09-22T01:04:23.457Z,13.3
2018-09-22T01:05:24.842Z,13.3
2018-09-22T01:06:26.228Z,13.4
2018-09-22T01:07:27.617Z,13.2
2018-09-22T01:08:29.004Z,13.2
2018-09-22T01:09:30.392Z,13.2
2018-09-22T01:10:31.783Z,13.1
2018-09-22T01:11:33.176Z,13.2
2018-09-22T01:12:34.561Z,13.2
2018-09-22T01:13:35.957Z,13.2
2018-09-22T01:14:37.361Z,13.2
2018-09-22T01:15:38.809Z,13.2
2018-09-22T01:16:40.145Z,13.2
2018-09-22T01:17:41.534Z,13.2
2018-09-22T01:18:42.922Z,13.2
2018-09-22T01:19:44.314Z,13.2
2018-09-22T01:20:45.713Z,13.2
2018-09-22T01:21:47.104Z,13.2
2018-09-22T01:22:48.488Z,13.2
2018-09-22T01:23:49.876Z,13.2
2018-09-22T01:24:51.267Z,13.2
2018-09-22T01:25:52.659Z,13.2
2018-09-22T01:26:54.045Z,13.2
2018-09-22T01:27:55.431Z,13.1
2018-09-22T01:28:56.826Z,13.1
2018-09-22T01:29:58.289Z,13.1
2018-09-22T01:30:59.719Z,13.2
2018-09-22T01:32:01.108Z,13.0
2018-09-22T01:33:02.511Z,13.1
2018-09-22T01:34:03.897Z,13.0
2018-09-22T01:35:05.286Z,13.1
2018-09-22T01:36:06.674Z,13.1
2018-09-22T01:37:08.062Z,13.1
2018-09-22T01:38:09.450Z,13.1
2018-09-22T01:39:10.836Z,13.1
2018-09-22T01:40:12.227Z,13.2
2018-09-22T01:41:13.613Z,13.1
2018-09-22T01:42:15.003Z,13.1
2018-09-22T01:43:16.445Z,13.0
2018-09-22T01:44:17.781Z,13.0
2018-09-22T01:45:19.171Z,13.0
2018-09-22T01:46:20.561Z,13.1
2018-09-22T01:47:21.954Z,13.2
2018-09-22T01:48:23.340Z,13.1
2018-09-22T01:49:24.730Z,13.0
2018-09-22T01:50:26.111Z,13.0
2018-09-22T01:51:27.494Z,13.0
2018-09-22T01:52:28.896Z,13.1
2018-09-22T01:53:30.274Z,13.0
2018-09-22T01:54:31.667Z,13.1
2018-09-22T01:55:33.050Z,13.0
2018-09-22T01:56:34.439Z,13.1
2018-09-22T01:57:35.824Z,13.1
2018-09-22T01:58:37.213Z,13.1
2018-09-22T01:59:38.601Z,13.0
2018-09-22T02:00:39.988Z,13.0
2018-09-22T02:01:41.378Z,13.1
2018-09-22T02:02:42.766Z,13.1
2018-09-22T02:03:44.154Z,13.0
2018-09-22T02:04:45.537Z,13.0
2018-09-22T02:05:46.926Z,13.0
2018-09-22T02:06:48.314Z,13.0
2018-09-22T02:07:49.704Z,12.9
2018-09-22T02:08:51.094Z,13.0
2018-09-22T02:09:52.480Z,13.0
2018-09-22T02:10:53.869Z,13.0
2018-09-22T02:11:55.257Z,13.0
2018-09-22T02:12:56.642Z,13.0
2018-09-22T02:13:58.032Z,13.0
2018-09-22T02:14:59.418Z,13.0
2018-09-22T02:16:00.808Z,13.0
2018-09-22T02:17:02.270Z,13.0
2018-09-22T02:18:03.715Z,13.0
2018-09-22T02:19:05.101Z,13.1
2018-09-22T02:20:06.488Z,13.0
2018-09-22T02:21:07.873Z,13.0
2018-09-22T02:22:09.262Z,13.0
2018-09-22T02:23:10.651Z,13.0
2018-09-22T02:24:12.036Z,13.1
2018-09-22T02:25:13.420Z,13.1
2018-09-22T02:26:14.805Z,13.1
2018-09-22T02:27:16.194Z,13.1
2018-09-22T02:28:17.582Z,13.1
2018-09-22T02:29:18.973Z,13.1
2018-09-22T02:30:20.357Z,13.0
2018-09-22T02:31:21.751Z,13.0
2018-09-22T02:32:23.139Z,13.1
2018-09-22T02:33:24.523Z,13.1
2018-09-22T02:34:25.916Z,13.1
2018-09-22T02:35:27.303Z,13.0
2018-09-22T02:36:28.694Z,13.0
2018-09-22T02:37:30.083Z,13.1
2018-09-22T02:38:31.468Z,13.0
2018-09-22T02:39:32.854Z,13.1
2018-09-22T02:40:34.240Z,13.0
2018-09-22T02:41:35.627Z,13.0
2018-09-22T02:42:37.009Z,12.9
2018-09-22T02:43:38.397Z,13.0
2018-09-22T02:44:39.792Z,13.0
2018-09-22T02:45:41.176Z,13.0
2018-09-22T02:46:42.572Z,13.0
2018-09-22T02:47:43.953Z,13.0
2018-09-22T02:48:45.348Z,13.0
2018-09-22T02:49:46.731Z,13.0
2018-09-22T02:50:48.121Z,13.0
2018-09-22T02:51:49.511Z,13.0
2018-09-22T02:52:50.897Z,13.0
2018-09-22T02:53:52.292Z,13.0
2018-09-22T02:54:53.683Z,13.0
2018-09-22T02:55:55.061Z,13.0
2018-09-22T02:56:56.448Z,13.0
2018-09-22T02:57:57.842Z,13.0
2018-09-22T02:58:59.248Z,13.0
2018-09-22T03:00:00.630Z,13.1
2018-09-22T03:01:02.016Z,13.0
2018-09-22T03:02:03.406Z,12.9
2018-09-22T03:03:04.795Z,13.0
2018-09-22T03:04:06.273Z,13.0
2018-09-22T03:05:07.660Z,12.9
2018-09-22T03:06:09.050Z,13.0
2018-09-22T03:07:10.441Z,12.9
2018-09-22T03:08:11.824Z,12.9
2018-09-22T03:09:13.210Z,13.0
2018-09-22T03:10:14.601Z,12.9
2018-09-22T03:11:15.989Z,13.0
2018-09-22T03:12:17.378Z,13.0
2018-09-22T03:13:18.766Z,13.0
2018-09-22T03:14:20.155Z,13.0
2018-09-22T03:15:21.557Z,13.0
2018-09-22T03:16:22.931Z,12.9
2018-09-22T03:17:24.319Z,12.9
2018-09-22T03:18:25.708Z,13.0
2018-09-22T03:19:27.100Z,12.9
2018-09-22T03:20:28.495Z,12.9
2018-09-22T03:21:29.882Z,12.9
2018-09-22T03:22:31.267Z,12.9
2018-09-22T03:23:32.651Z,13.0
2018-09-22T03:24:34.038Z,12.9
2018-09-22T03:25:35.429Z,12.9
2018-09-22T03:26:36.821Z,13.0
2018-09-22T03:27:38.209Z,12.9
2018-09-22T03:28:39.596Z,12.9
2018-09-22T03:29:40.981Z,12.9
2018-09-22T03:30:42.368Z,13.0
2018-09-22T03:31:43.755Z,12.9
2018-09-22T03:32:45.145Z,12.9
2018-09-22T03:33:46.541Z,12.9
2018-09-22T03:34:47.920Z,13.0
2018-09-22T03:35:49.308Z,13.0
2018-09-22T03:36:50.694Z,12.9
2018-09-22T03:37:52.083Z,12.8
2018-09-22T03:38:53.473Z,12.9
2018-09-22T03:39:54.870Z,12.9
2018-09-22T03:40:56.261Z,13.0
2018-09-22T03:41:57.646Z,13.0
2018-09-22T03:42:59.038Z,12.9
2018-09-22T03:44:00.432Z,13.0
2018-09-22T03:45:01.824Z,12.8
2018-09-22T03:46:03.213Z,12.9
2018-09-22T03:47:04.599Z,12.9
2018-09-22T03:48:05.988Z,12.9
2018-09-22T03:49:07.375Z,12.9
2018-09-22T03:50:08.787Z,12.9
2018-09-22T03:51:10.160Z,12.8
2018-09-22T03:52:11.546Z,12.8
2018-09-22T03:53:12.938Z,12.8
2018-09-22T03:54:14.326Z,12.8
2018-09-22T03:55:15.717Z,12.8
2018-09-22T03:56:17.105Z,12.8
2018-09-22T03:57:18.499Z,12.8
2018-09-22T03:58:19.885Z,12.8
2018-09-22T03:59:21.273Z,12.8
2018-09-22T04:00:22.663Z,12.8
2018-09-22T04:01:24.052Z,12.8
2018-09-22T04:02:25.440Z,12.8
2018-09-22T04:03:26.832Z,12.7
2018-09-22T04:04:28.217Z,12.8
2018-09-22T04:05:29.605Z,12.8
2018-09-22T04:06:30.997Z,12.8
2018-09-22T04:07:32.389Z,12.8
2018-09-22T04:08:33.770Z,12.8
2018-09-22T04:09:35.165Z,12.9
2018-09-22T04:10:36.551Z,12.7
2018-09-22T04:11:37.937Z,12.7
2018-09-22T04:12:39.324Z,12.7
2018-09-22T04:13:40.707Z,12.7
2018-09-22T04:14:42.092Z,12.7
2018-09-22T04:15:43.484Z,12.7
2018-09-22T04:16:44.872Z,12.7
2018-09-22T04:17:46.261Z,12.8
2018-09-22T04:18:47.653Z,12.7
2018-09-22T04:19:49.039Z,12.7
2018-09-22T04:20:50.425Z,12.7
2018-09-22T04:21:51.812Z,12.7
2018-09-22T04:22:53.207Z,12.6
2018-09-22T04:23:54.592Z,12.7
2018-09-22T04:24:55.993Z,12.7
2018-09-22T04:25:57.380Z,12.7
2018-09-22T04:26:58.774Z,12.7
2018-09-22T04:28:00.158Z,12.7
2018-09-22T04:29:01.547Z,12.7
2018-09-22T04:30:02.931Z,12.7
2018-09-22T04:31:04.329Z,12.7
2018-09-22T04:32:05.732Z,12.5
2018-09-22T04:33:07.127Z,12.6
2018-09-22T04:34:08.516Z,12.6
2018-09-22T04:35:09.904Z,12.7
2018-09-22T04:36:11.291Z,12.5
2018-09-22T04:37:12.707Z,12.6
2018-09-22T04:38:14.197Z,12.7
2018-09-22T04:39:15.585Z,12.7
2018-09-22T04:40:16.973Z,12.7
2018-09-22T04:41:18.361Z,12.7
2018-09-22T04:42:19.752Z,12.7
2018-09-22T04:43:21.138Z,12.8
2018-09-22T04:44:22.525Z,12.7
2018-09-22T04:45:23.912Z,12.6
2018-09-22T04:46:25.300Z,12.7
2018-09-22T04:47:26.692Z,12.7
2018-09-22T04:48:28.081Z,12.6
2018-09-22T04:49:29.465Z,12.7
2018-09-22T04:50:30.865Z,12.7
2018-09-22T04:51:32.534Z,12.7
2018-09-22T04:52:33.980Z,12.7
2018-09-22T04:53:35.367Z,12.7
2018-09-22T04:54:37.019Z,12.6
2018-09-22T04:55:38.411Z,12.7
2018-09-22T04:56:39.803Z,12.7
2018-09-22T04:57:41.201Z,12.7
2018-09-22T04:58:42.622Z,12.8
2018-09-22T04:59:44.018Z,12.7
2018-09-22T05:00:45.526Z,12.7
2018-09-22T05:01:46.950Z,12.7
2018-09-22T05:02:48.584Z,12.7
2018-09-22T05:03:50.199Z,12.7
2018-09-22T05:04:51.602Z,12.8
2018-09-22T05:05:53.041Z,12.7
2018-09-22T05:06:54.431Z,12.8
2018-09-22T05:07:55.825Z,12.7
2018-09-22T05:08:57.234Z,12.7
2018-09-22T05:09:58.628Z,12.7
2018-09-22T05:11:00.014Z,12.7
2018-09-22T05:12:01.408Z,12.7
2018-09-22T05:13:02.799Z,12.7
2018-09-22T05:14:04.188Z,12.7
2018-09-22T05:15:05.581Z,12.7
2018-09-22T05:16:06.973Z,12.7
2018-09-22T05:17:08.374Z,12.6
2018-09-22T05:18:09.747Z,12.7
2018-09-22T05:19:11.136Z,12.7
2018-09-22T05:20:12.528Z,12.6
2018-09-22T05:21:13.911Z,12.6
2018-09-22T05:22:15.369Z,12.7
2018-09-22T05:23:16.772Z,12.7
2018-09-22T05:24:18.160Z,12.6
2018-09-22T05:25:19.560Z,12.5
2018-09-22T05:26:20.945Z,12.7
2018-09-22T05:27:22.334Z,12.6
2018-09-22T05:28:23.738Z,12.7
2018-09-22T05:29:25.150Z,12.5
2018-09-22T05:30:26.559Z,12.6
2018-09-22T05:31:27.950Z,12.6
2018-09-22T05:32:29.342Z,12.6
2018-09-22T05:33:30.744Z,12.6
2018-09-22T05:34:32.124Z,12.6
2018-09-22T05:35:33.564Z,12.5
2018-09-22T05:36:34.914Z,12.6
2018-09-22T05:37:36.310Z,12.7
2018-09-22T05:38:37.716Z,12.6
2018-09-22T05:39:39.107Z,12.6
2018-09-22T05:40:40.496Z,12.5
2018-09-22T05:41:41.922Z,12.5
2018-09-22T05:42:43.373Z,12.6
2018-09-22T05:43:44.771Z,12.6
2018-09-22T05:44:46.166Z,12.7
2018-09-22T05:45:47.581Z,12.6
2018-09-22T05:46:48.975Z,12.6
2018-09-22T05:47:50.443Z,12.5
2018-09-22T05:48:51.867Z,12.5
2018-09-22T05:49:53.263Z,12.5
2018-09-22T05:50:54.649Z,12.7
2018-09-22T05:51:56.043Z,12.7
2018-09-22T05:52:57.440Z,12.8
2018-09-22T05:53:58.829Z,12.7
2018-09-22T05:55:00.224Z,12.7
2018-09-22T05:56:01.624Z,12.7
2018-09-22T05:57:03.000Z,12.7
2018-09-22T05:58:04.465Z,12.7
2018-09-22T05:59:05.793Z,12.7
2018-09-22T06:00:07.189Z,12.7
2018-09-22T06:01:08.582Z,12.7
2018-09-22T06:02:09.973Z,12.7
2018-09-22T06:03:11.368Z,12.7
2018-09-22T06:04:12.780Z,12.7
2018-09-22T06:05:14.175Z,12.7
2018-09-22T06:06:15.564Z,12.7
2018-09-22T06:07:16.955Z,12.7
2018-09-22T06:08:18.483Z,12.8
2018-09-22T06:09:19.880Z,12.8
2018-09-22T06:10:21.269Z,12.7
2018-09-22T06:11:22.663Z,12.8
2018-09-22T06:12:24.079Z,12.7
2018-09-22T06:13:25.468Z,12.8
2018-09-22T06:14:26.854Z,12.8
2018-09-22T06:15:28.284Z,12.8
2018-09-22T06:16:29.673Z,12.8
2018-09-22T06:17:31.065Z,12.9
2018-09-22T06:18:32.458Z,13.0
2018-09-22T06:19:33.853Z,12.9
2018-09-22T06:20:35.241Z,13.0
2018-09-22T06:21:36.627Z,13.0
2018-09-22T06:22:38.027Z,13.2
2018-09-22T06:23:39.448Z,13.3
2018-09-22T06:24:40.838Z,13.4
2018-09-22T06:25:42.231Z,13.5
2018-09-22T06:26:43.623Z,13.4
2018-09-22T06:27:45.016Z,13.3
2018-09-22T06:28:46.437Z,13.3
2018-09-22T06:29:47.756Z,13.2
2018-09-22T06:30:49.152Z,13.2
2018-09-22T06:31:50.551Z,13.2
2018-09-22T06:32:51.943Z,13.2
2018-09-22T06:33:53.363Z,13.2
2018-09-22T06:34:54.845Z,13.2
2018-09-22T06:35:56.208Z,13.3
2018-09-22T06:36:57.596Z,13.2
2018-09-22T06:37:58.993Z,13.2
2018-09-22T06:39:00.385Z,13.2
2018-09-22T06:40:01.864Z,13.2
2018-09-22T06:41:03.258Z,13.3
2018-09-22T06:42:04.722Z,13.3
2018-09-22T06:43:06.129Z,13.3
2018-09-22T06:44:07.532Z,13.4
2018-09-22T06:45:08.925Z,13.2
2018-09-22T06:46:10.384Z,13.3
2018-09-22T06:47:11.722Z,13.3
2018-09-22T06:48:13.131Z,13.4
2018-09-22T06:49:14.517Z,13.4
2018-09-22T06:50:15.910Z,13.4
2018-09-22T06:51:17.314Z,13.4
2018-09-22T06:52:18.758Z,13.5
2018-09-22T06:53:20.153Z,13.4
2018-09-22T06:54:21.591Z,13.5
2018-09-22T06:55:22.994Z,13.5
2018-09-22T06:56:24.385Z,13.4
2018-09-22T06:57:25.783Z,13.5
2018-09-22T06:58:27.176Z,13.5
2018-09-22T06:59:28.573Z,13.5
2018-09-22T07:00:29.952Z,13.5
2018-09-22T07:01:31.352Z,13.4
2018-09-22T07:02:32.748Z,13.5
2018-09-22T07:03:34.146Z,13.4
2018-09-22T07:04:35.537Z,13.4
2018-09-22T07:05:36.949Z,13.5
2018-09-22T07:06:38.356Z,13.5
2018-09-22T07:07:39.746Z,13.6
2018-09-22T07:08:41.140Z,13.6
2018-09-22T07:09:42.552Z,13.6
2018-09-22T07:10:43.947Z,13.5
2018-09-22T07:11:45.339Z,13.6
2018-09-22T07:12:46.731Z,13.6
2018-09-22T07:13:48.167Z,13.7
2018-09-22T07:14:49.515Z,13.7
2018-09-22T07:15:50.909Z,13.7
2018-09-22T07:16:52.307Z,13.7
2018-09-22T07:17:53.698Z,13.7
2018-09-22T07:18:55.094Z,13.7
2018-09-22T07:19:56.487Z,13.8
2018-09-22T07:20:57.886Z,13.8
2018-09-22T07:21:59.276Z,13.8
2018-09-22T07:23:00.671Z,13.8
2018-09-22T07:24:02.064Z,13.7
2018-09-22T07:25:03.455Z,13.7
2018-09-22T07:26:04.924Z,13.8
2018-09-22T07:27:06.277Z,13.9
2018-09-22T07:28:07.672Z,13.9
2018-09-22T07:29:09.068Z,13.9
2018-09-22T07:30:10.465Z,13.9
2018-09-22T07:31:11.885Z,13.9
2018-09-22T07:32:13.261Z,14.0
2018-09-22T07:33:14.647Z,14.0
2018-09-22T07:34:16.037Z,14.0
2018-09-22T07:35:17.436Z,14.1
2018-09-22T07:36:18.835Z,14.2
2018-09-22T07:37:20.225Z,14.1
2018-09-22T07:38:21.619Z,14.2
2018-09-22T07:39:23.056Z,14.3
2018-09-22T07:40:24.406Z,14.3
2018-09-22T07:41:25.816Z,14.4
2018-09-22T07:42:27.207Z,14.4
2018-09-22T07:43:28.601Z,14.3
2018-09-22T07:44:30.003Z,14.4
2018-09-22T07:45:31.413Z,14.4
2018-09-22T07:46:32.809Z,14.5
2018-09-22T07:47:34.217Z,14.4
2018-09-22T07:48:35.676Z,14.5
2018-09-22T07:49:37.152Z,14.4
2018-09-22T07:50:38.652Z,14.4
2018-09-22T07:51:40.053Z,14.5
2018-09-22T07:52:41.458Z,14.5
2018-09-22T07:53:42.853Z,14.6
2018-09-22T07:54:44.242Z,14.6
2018-09-22T07:55:45.645Z,14.7
2018-09-22T07:56:47.045Z,14.7
2018-09-22T07:57:48.435Z,14.7
2018-09-22T07:58:49.832Z,14.8
2018-09-22T07:59:51.230Z,14.8
2018-09-22T08:00:52.743Z,14.7
2018-09-22T08:01:54.159Z,14.8
2018-09-22T08:02:55.574Z,14.8
2018-09-22T08:03:56.968Z,14.8
2018-09-22T08:04:58.365Z,14.9
2018-09-22T08:05:59.763Z,15.0
2018-09-22T08:07:01.158Z,15.1
2018-09-22T08:08:02.551Z,15.0
2018-09-22T08:09:04.037Z,15.1
2018-09-22T08:10:05.430Z,15.1
2018-09-22T08:11:06.897Z,15.2
2018-09-22T08:12:08.290Z,15.1
2018-09-22T08:13:09.687Z,15.2
2018-09-22T08:14:11.090Z,15.2
2018-09-22T08:15:12.487Z,15.1
2018-09-22T08:16:13.893Z,15.2
2018-09-22T08:17:15.332Z,15.2
2018-09-22T08:18:16.723Z,15.1
2018-09-22T08:19:18.141Z,15.1
2018-09-22T08:20:19.536Z,15.2
2018-09-22T08:21:20.939Z,15.3
2018-09-22T08:22:22.326Z,15.4
2018-09-22T08:23:23.716Z,15.3
2018-09-22T08:24:25.113Z,15.4
2018-09-22T08:25:26.509Z,15.4
2018-09-22T08:26:27.908Z,15.5
2018-09-22T08:27:29.324Z,15.5
2018-09-22T08:28:30.722Z,15.7
2018-09-22T08:29:32.125Z,15.7
2018-09-22T08:30:33.518Z,15.6
2018-09-22T08:31:34.938Z,15.8
2018-09-22T08:32:36.321Z,15.8
2018-09-22T08:33:37.876Z,15.7
2018-09-22T08:34:39.272Z,15.7
2018-09-22T08:35:40.670Z,15.9
2018-09-22T08:36:42.126Z,15.8
2018-09-22T08:37:43.478Z,15.8
2018-09-22T08:38:44.874Z,15.7
2018-09-22T08:39:46.276Z,15.7
2018-09-22T08:40:47.670Z,15.9
2018-09-22T08:41:49.072Z,15.8
2018-09-22T08:42:50.461Z,15.8
2018-09-22T08:43:51.876Z,15.8
2018-09-22T08:44:53.285Z,15.7
2018-09-22T08:45:54.659Z,15.8
2018-09-22T08:46:56.044Z,15.8
2018-09-22T08:47:57.463Z,15.9
2018-09-22T08:48:58.862Z,15.9
2018-09-22T08:50:00.296Z,15.9
2018-09-22T08:51:01.680Z,16.0
2018-09-22T08:52:03.049Z,16.0
2018-09-22T08:53:04.538Z,16.0
2018-09-22T08:54:05.935Z,16.1
2018-09-22T08:55:07.334Z,16.1
2018-09-22T08:56:08.778Z,16.1
2018-09-22T08:57:10.127Z,16.2
2018-09-22T08:58:11.521Z,16.2
2018-09-22T08:59:14.780Z,16.3
2018-09-22T09:00:16.125Z,16.4
2018-09-22T09:01:17.575Z,16.2
2018-09-22T09:02:18.965Z,16.3
2018-09-22T09:03:20.362Z,16.4
2018-09-22T09:04:21.759Z,16.3
2018-09-22T09:05:23.155Z,16.4
2018-09-22T09:06:24.555Z,16.6
2018-09-22T09:07:25.943Z,16.6
2018-09-22T09:08:27.341Z,16.6
2018-09-22T09:09:28.813Z,16.7
2018-09-22T09:10:30.181Z,16.8
2018-09-22T09:11:31.660Z,16.8
2018-09-22T09:12:32.970Z,16.9
2018-09-22T09:13:34.380Z,17.1
2018-09-22T09:14:35.782Z,17.3
2018-09-22T09:15:37.167Z,17.5
2018-09-22T09:16:38.564Z,17.6
2018-09-22T09:17:39.963Z,17.7
2018-09-22T09:18:41.361Z,17.8
2018-09-22T09:19:42.761Z,17.8
2018-09-22T09:20:44.158Z,17.7
2018-09-22T09:21:45.552Z,17.8
2018-09-22T09:22:46.953Z,17.6
2018-09-22T09:23:48.361Z,17.4
2018-09-22T09:24:49.758Z,17.4
2018-09-22T09:25:51.159Z,17.6
2018-09-22T09:26:52.558Z,17.9
2018-09-22T09:27:53.954Z,18.1
2018-09-22T09:28:55.359Z,18.5
2018-09-22T09:29:56.754Z,18.8
2018-09-22T09:30:58.151Z,19.1
2018-09-22T09:31:59.555Z,19.4
2018-09-22T09:33:00.970Z,19.5
2018-09-22T09:34:02.369Z,20.0
2018-09-22T09:35:03.774Z,20.1
2018-09-22T09:36:05.171Z,19.9
2018-09-22T09:37:06.568Z,20.0
2018-09-22T09:38:07.971Z,19.9
2018-09-22T09:39:09.375Z,19.8
2018-09-22T09:40:10.774Z,20.0
2018-09-22T09:41:12.178Z,19.9
2018-09-22T09:42:13.574Z,19.8
2018-09-22T09:43:15.010Z,19.5
2018-09-22T09:44:16.373Z,19.8
2018-09-22T09:45:17.778Z,20.3
2018-09-22T09:46:19.181Z,20.6
2018-09-22T09:47:20.587Z,20.6
2018-09-22T09:48:21.988Z,20.9
2018-09-22T09:49:23.388Z,20.9
2018-09-22T09:50:24.793Z,20.8
2018-09-22T09:51:26.193Z,21.0
2018-09-22T09:52:27.599Z,21.3
2018-09-22T09:53:29.002Z,21.1
2018-09-22T09:54:30.425Z,21.2
2018-09-22T09:55:31.804Z,20.7
2018-09-22T09:56:33.238Z,20.4
2018-09-22T09:57:34.642Z,20.4
2018-09-22T09:58:36.045Z,20.5
2018-09-22T09:59:37.449Z,20.0
2018-09-22T10:00:38.850Z,19.8
2018-09-22T10:01:40.253Z,19.7
2018-09-22T10:02:41.657Z,19.3
2018-09-22T10:03:43.059Z,19.8
2018-09-22T10:04:44.460Z,20.3
2018-09-22T10:05:45.859Z,20.7
2018-09-22T10:06:47.263Z,20.9
2018-09-22T10:07:48.664Z,21.2
2018-09-22T10:08:50.068Z,21.2
2018-09-22T10:09:51.469Z,21.9
2018-09-22T10:10:52.869Z,22.2
2018-09-22T10:11:54.299Z,21.9
2018-09-22T10:12:55.673Z,21.9
2018-09-22T10:13:57.081Z,21.6
2018-09-22T10:14:58.480Z,21.5
2018-09-22T10:15:59.885Z,21.3
2018-09-22T10:17:01.288Z,21.5
2018-09-22T10:18:02.690Z,21.3
2018-09-22T10:19:04.092Z,21.2
2018-09-22T10:20:05.500Z,20.9
2018-09-22T10:21:06.901Z,20.9
2018-09-22T10:22:08.299Z,20.6
2018-09-22T10:23:09.709Z,20.6
2018-09-22T10:24:11.108Z,20.6
2018-09-22T10:25:12.511Z,20.9
2018-09-22T10:26:13.905Z,21.0
2018-09-22T10:27:15.308Z,20.8
2018-09-22T10:28:16.756Z,20.3
2018-09-22T10:29:18.104Z,20.2
2018-09-22T10:30:19.503Z,20.2
2018-09-22T10:31:20.915Z,20.3
2018-09-22T10:32:22.310Z,20.1
2018-09-22T10:33:23.707Z,19.8
2018-09-22T10:34:25.108Z,19.7
2018-09-22T10:35:26.506Z,19.6
2018-09-22T10:36:27.908Z,19.4
2018-09-22T10:37:29.308Z,19.5
2018-09-22T10:38:30.705Z,19.5
2018-09-22T10:39:32.109Z,19.4
2018-09-22T10:40:33.501Z,19.4
2018-09-22T10:41:34.900Z,19.3
2018-09-22T10:42:36.401Z,19.2
2018-09-22T10:43:37.824Z,18.9
2018-09-22T10:44:39.223Z,18.9
2018-09-22T10:45:40.618Z,18.9
2018-09-22T10:46:42.015Z,18.7
2018-09-22T10:47:43.431Z,18.5
2018-09-22T10:48:44.834Z,18.6
2018-09-22T10:49:46.230Z,18.6
2018-09-22T10:50:47.630Z,18.7
2018-09-22T10:51:49.021Z,18.7
2018-09-22T10:52:50.469Z,18.6
2018-09-22T10:53:51.817Z,18.7
2018-09-22T10:54:53.217Z,18.7
2018-09-22T10:55:54.609Z,18.6
2018-09-22T10:56:56.005Z,18.5
2018-09-22T10:57:57.401Z,18.4
2018-09-22T10:58:58.805Z,18.5
2018-09-22T11:00:00.199Z,18.3
2018-09-22T11:01:01.606Z,18.3
2018-09-22T11:02:02.998Z,18.4
2018-09-22T11:03:04.388Z,18.5
2018-09-22T11:04:05.792Z,18.4
2018-09-22T11:05:07.190Z,18.4
2018-09-22T11:06:08.586Z,18.3
2018-09-22T11:07:09.985Z,18.2
2018-09-22T11:08:11.378Z,18.3
2018-09-22T11:09:12.777Z,18.2
2018-09-22T11:10:14.176Z,18.2
2018-09-22T11:11:15.574Z,18.2
2018-09-22T11:12:16.972Z,18.2
2018-09-22T11:13:18.369Z,18.1
2018-09-22T11:14:19.769Z,18.2
2018-09-22T11:15:21.163Z,18.2
2018-09-22T11:16:22.583Z,18.2
2018-09-22T11:17:23.977Z,18.2
2018-09-22T11:18:25.377Z,18.4
2018-09-22T11:19:26.776Z,18.3
2018-09-22T11:20:28.174Z,18.4
2018-09-22T11:21:29.572Z,18.4
2018-09-22T11:22:30.967Z,18.5
2018-09-22T11:23:32.362Z,18.5
2018-09-22T11:24:33.760Z,18.5
2018-09-22T11:25:35.158Z,18.5
2018-09-22T11:26:36.557Z,18.4
2018-09-22T11:27:37.959Z,18.4
2018-09-22T11:28:39.401Z,18.5
2018-09-22T11:29:40.797Z,18.6
2018-09-22T11:30:42.190Z,18.7
2018-09-22T11:31:43.589Z,18.7
2018-09-22T11:32:45.017Z,18.7
2018-09-22T11:33:46.386Z,18.7
2018-09-22T11:34:47.782Z,18.6
2018-09-22T11:35:49.176Z,18.4
2018-09-22T11:36:50.574Z,18.5
2018-09-22T11:37:51.980Z,18.4
2018-09-22T11:38:53.376Z,18.5
2018-09-22T11:39:54.775Z,18.5
2018-09-22T11:40:56.171Z,18.4
2018-09-22T11:41:57.572Z,18.4
2018-09-22T11:42:58.961Z,18.6
2018-09-22T11:44:00.358Z,18.6
2018-09-22T11:45:01.758Z,18.5
2018-09-22T11:46:03.151Z,18.5
2018-09-22T11:47:04.548Z,18.6
2018-09-22T11:48:05.944Z,18.6
2018-09-22T11:49:07.342Z,18.6
2018-09-22T11:50:08.737Z,18.7
2018-09-22T11:51:10.142Z,18.8
2018-09-22T11:52:11.536Z,18.8
2018-09-22T11:53:12.928Z,18.8
2018-09-22T11:54:14.328Z,18.7
2018-09-22T11:55:15.744Z,18.8
2018-09-22T11:56:17.157Z,19.0
2018-09-22T11:57:18.537Z,18.9
2018-09-22T11:58:19.933Z,19.0
2018-09-22T11:59:21.328Z,19.0
2018-09-22T12:00:22.724Z,18.9
2018-09-22T12:01:24.119Z,18.9
2018-09-22T12:02:25.518Z,18.7
2018-09-22T12:03:26.911Z,18.8
2018-09-22T12:04:28.312Z,18.8
2018-09-22T12:05:29.702Z,18.9
2018-09-22T12:06:31.145Z,18.9
2018-09-22T12:07:32.499Z,18.9
2018-09-22T12:08:33.892Z,18.6
2018-09-22T12:09:35.288Z,18.6
2018-09-22T12:10:36.685Z,18.5
2018-09-22T12:11:38.080Z,18.5
2018-09-22T12:12:39.474Z,18.5
2018-09-22T12:13:40.867Z,18.5
2018-09-22T12:14:42.262Z,18.5
2018-09-22T12:15:43.758Z,18.5
2018-09-22T12:16:45.183Z,18.5
2018-09-22T12:17:46.580Z,18.5
2018-09-22T12:18:47.976Z,18.2
2018-09-22T12:19:49.371Z,18.1
2018-09-22T12:20:50.769Z,17.9
2018-09-22T12:21:52.160Z,17.9
2018-09-22T12:22:53.559Z,17.9
2018-09-22T12:23:54.953Z,17.9
2018-09-22T12:24:56.351Z,18.0
2018-09-22T12:25:57.744Z,17.7
2018-09-22T12:26:59.139Z,17.6
2018-09-22T12:28:00.533Z,17.7
2018-09-22T12:29:01.930Z,17.5
2018-09-22T12:30:03.325Z,17.6
2018-09-22T12:31:04.723Z,17.4
2018-09-22T12:32:06.172Z,17.5
2018-09-22T12:33:07.508Z,17.5
2018-09-22T12:34:08.901Z,17.4
2018-09-22T12:35:10.296Z,17.4
2018-09-22T12:36:11.692Z,17.3
2018-09-22T12:37:13.087Z,17.3
2018-09-22T12:38:14.483Z,17.2
2018-09-22T12:39:15.882Z,17.2
2018-09-22T12:40:17.275Z,17.2
2018-09-22T12:41:18.671Z,17.2
2018-09-22T12:42:20.066Z,17.0
2018-09-22T12:43:21.463Z,17.1
2018-09-22T12:44:22.864Z,17.0
2018-09-22T12:45:24.258Z,17.0
2018-09-22T12:46:25.693Z,17.1
2018-09-22T12:47:27.087Z,17.1
2018-09-22T12:48:28.483Z,17.1
2018-09-22T12:49:29.876Z,17.0
2018-09-22T12:50:31.276Z,16.9
2018-09-22T12:51:32.670Z,16.9
2018-09-22T12:52:34.072Z,16.9
2018-09-22T12:53:35.504Z,16.9
2018-09-22T12:54:36.857Z,16.8
2018-09-22T12:55:38.248Z,16.8
2018-09-22T12:56:41.449Z,16.6
2018-09-22T12:57:42.852Z,16.7
2018-09-22T12:58:44.247Z,16.6
2018-09-22T12:59:45.714Z,16.3
2018-09-22T13:00:47.114Z,16.3
2018-09-22T13:01:48.507Z,16.2
2018-09-22T13:02:49.896Z,16.2
2018-09-22T13:03:51.349Z,16.2
2018-09-22T13:04:52.693Z,16.2
2018-09-22T13:05:54.093Z,16.1
2018-09-22T13:06:55.486Z,16.0
2018-09-22T13:07:56.887Z,16.0
2018-09-22T13:08:58.387Z,15.9
2018-09-22T13:09:59.777Z,15.9
2018-09-22T13:11:01.175Z,15.8
2018-09-22T13:12:02.572Z,15.8
2018-09-22T13:13:03.967Z,15.6
2018-09-22T13:14:05.364Z,15.6
2018-09-22T13:15:06.761Z,15.5
2018-09-22T13:16:08.380Z,15.4
2018-09-22T13:17:09.776Z,15.3
2018-09-22T13:18:11.159Z,15.3
2018-09-22T13:19:12.551Z,15.3
2018-09-22T13:20:14.039Z,15.1
2018-09-22T13:21:15.343Z,14.9
2018-09-22T13:22:16.733Z,14.8
2018-09-22T13:23:18.331Z,14.6
2018-09-22T13:24:19.690Z,14.7
2018-09-22T13:25:21.090Z,14.6
2018-09-22T13:26:22.476Z,14.6
2018-09-22T13:27:23.882Z,14.6
2018-09-22T13:28:25.277Z,14.6
2018-09-22T13:29:26.680Z,14.5
2018-09-22T13:30:28.074Z,14.5
2018-09-22T13:31:29.464Z,14.4
2018-09-22T13:32:30.864Z,14.4
2018-09-22T13:33:32.251Z,14.3
2018-09-22T13:34:33.650Z,14.3
2018-09-22T13:35:35.044Z,14.3
2018-09-22T13:36:36.499Z,14.3
2018-09-22T13:37:38.446Z,14.4
2018-09-22T13:38:39.905Z,14.4
2018-09-22T13:39:41.233Z,14.4
2018-09-22T13:40:42.625Z,14.4